Rodrigo Jara

Scout - Colo-Colo
5 Dez 2027
Sonntag
Verarbeitung

Persönlichkeit

Anpassungsfähigkeit (1) Ehrgeiz (17) Kontroverse (1) Loyalität (8) Druck (6) Professionalität (11) Fairness (2) Temperament (6)

Profil

Trainerstil Demokratisch
Lizenz Kontinentale Pro
Entschlossenheit 11
Menschenführung 14
Motivation 13
Disziplin 13
Arbeitszufriedenheit
46%
Ermüdung
0%
Rolle Scout
Gehalt 24.9K p/W
Vertrag 14.03.2029

Leistung

Verhalten Gut
Trainingseffektivität
23%
Spielerentwicklung
40%
Verletzungsprävention
45%
Taktische Umsetzung
50%

Letzte Ereignisse

Nahm an einer Scouting-Besprechung teil jetzt
Nahm an einer Scouting-Besprechung teil jetzt
Empfahl ein Transferziel jetzt
Nahm an einer Scouting-Besprechung teil 7T her
Empfahl ein Transferziel 7T her
Empfahl ein Transferziel 7T her
Spieler begutachtet 7T her
Spieler begutachtet 7T her

Aktuell beobachtet

153
Spieler Verein Status Fähigkeit Vertrauen Beobachtet Zuletzt beobachtet Letzte Stimme
Agustín Venezia Iquique Bericht bereit 112 / 117 72% 1 01.12.2027 -
Nicolás Fernández Belgrano Aktiv 129 / 125 40% 1 30.11.2027 -
Daniel Barrea Godoy Cruz Aktiv 117 / 128 40% 1 30.11.2027 -
Hosea Michael Remo Stars Aktiv 87 / 112 40% 2 25.11.2027 -
Sebastián Arancibia O'Higgins Aktiv 104 / 102 40% 1 25.11.2027 -
Luis Otávio FC Dallas Aktiv 118 / 109 40% 1 25.11.2027 -
Onuorah Onyedika Kun Khalifat Aktiv 72 / 93 40% 2 23.11.2027 -
Mateo Ferrari Atlanta Aktiv 80 / 90 40% 1 23.11.2027 -
Alejandro Almaraz Eibar Aktiv 117 / 120 40% 1 23.11.2027 -
Juan Camilo Córdoba Deportivo Pereira Aktiv 86 / 95 40% 3 19.11.2027 -
Mauro Carrizo Atlético Tucumán Aktiv 100 / 113 40% 2 19.11.2027 -
Lautaro Dufur Rentistas Aktiv 95 / 97 40% 1 19.11.2027 -
Ulises Giménez River Plate Aktiv 110 / 110 40% 2 16.11.2027 -
Matías Argüello Libertad Aktiv 101 / 100 40% 2 16.11.2027 -
Adrian Skogmar Malmo FF Aktiv 123 / 109 40% 2 16.11.2027 -
Juan Giménez Rayo Vallecano Aktiv 131 / 135 40% 1 15.11.2027 -
Andres Sinisterra Cortulua Aktiv 87 / 91 40% 1 15.11.2027 -
Andres Rondon Llaneros Aktiv 83 / 94 40% 2 10.11.2027 -
Agustín Obregón River Plate Aktiv 107 / 116 40% 1 08.11.2027 -
Olaniyi Saheed Kwara United Aktiv 88 / 101 40% 1 08.11.2027 -
David Damboama El-Kanemi Warriors Aktiv 76 / 99 40% 1 06.11.2027 -
Matías Canedo Rampla Juniors Aktiv 80 / 97 40% 2 05.11.2027 -
Izan Merino Málaga Aktiv 126 / 126 40% 1 05.11.2027 -
Dilan Acosta Defensores Aktiv 95 / 103 40% 1 05.11.2027 -
Felipe Obradovich Lanús Aktiv 103 / 110 40% 2 04.11.2027 -
Joel Ezra Enyimba Aktiv 85 / 116 40% 1 04.11.2027 -
Alexis Ríos Leones Aktiv 83 / 94 40% 1 04.11.2027 -
Ivan Borges Defensores Aktiv 84 / 95 40% 1 02.11.2027 -
Toni Fruk Ipswich Town Aktiv 145 / 127 40% 2 19.07.2027 Mehr Infos nötig
Taty Castellanos West Ham United Aktiv 142 / 146 40% 1 19.07.2027 -
Žan Vipotnik Swansea City Aktiv 128 / 130 40% 6 08.07.2027 -
Lorenzo Colombo Genoa Aktiv 147 / 123 40% 2 08.07.2027 -
Kwadwo Baah Watford Aktiv 135 / 136 40% 1 05.07.2027 -
Léo Scienza Southampton Aktiv 136 / 139 40% 1 05.07.2027 -
Tim Iroegbunam Hull City Aktiv 140 / 147 40% 1 05.07.2027 -
Gianluca Scamacca Atalanta Aktiv 158 / 153 40% 3 28.06.2027 -
Aune Heggebø West Bromwich Albion Aktiv 136 / 126 40% 3 28.06.2027 -
Ilyas Ansah Hull City Aktiv 138 / 130 40% 4 14.06.2027 -
Joelinton Newcastle United Aktiv 166 / 170 40% 1 14.06.2027 -
Guille Rosas Gijón Aktiv 133 / 125 40% 1 14.06.2027 -
Joaquín Mattalia Universidad Catolica Aktiv 112 / 106 72% 1 06.06.2027 Befürworten
Antonio Castillo Cobresal Aktiv 99 / 104 72% 1 03.06.2027 Befürworten
Ilias Chair Queens Park Rangers Aktiv 121 / 136 40% 1 31.05.2027 -
Tom Fellows Southampton Aktiv 131 / 125 40% 1 31.05.2027 -
Rodrigo Muniz Fulham Aktiv 139 / 157 40% 2 27.05.2027 -
Patrick Agyemang Derby County Aktiv 136 / 135 40% 2 26.05.2027 -
Mattia Bortolussi Padova Aktiv 133 / 102 40% 2 26.05.2027 -
Luciano Jachfe Nueva Chicago Aktiv 114 / 114 40% 1 25.05.2027 -
Will Dennis Milton Keynes Dons Aktiv 108 / 101 40% 3 23.05.2027 -
Joaquín Enrico San Telmo Aktiv 102 / 107 40% 2 23.05.2027 -
Miguel Rodríguez Caracas Aktiv 128 / 125 40% 2 22.05.2027 -
Giovane Napoli Aktiv 144 / 129 40% 1 20.05.2027 -
Killian Cahill Leyton Orient Aktiv 110 / 110 40% 7 18.05.2027 -
Radek Vítek Middlesbrough Aktiv 129 / 122 40% 2 17.05.2027 -
Agustín Lastra Estudiantes Aktiv 111 / 107 40% 1 17.05.2027 -
Nahuel Galardi Maipú Aktiv 108 / 109 40% 1 17.05.2027 -
Filip Marschall Stevenage Aktiv 110 / 123 40% 3 12.05.2027 -
Thulani Furman SuperSport United Aktiv 106 / 106 40% 2 12.05.2027 -
Maduka Okoye Udinese Aktiv 131 / 129 40% 3 12.05.2027 -
Tom Booth Crewe Alexandra Aktiv 91 / 103 40% 3 10.05.2027 -
Santino Barbi Talleres Aktiv 109 / 114 40% 1 10.05.2027 -
Lucas Ruiz Al Shabab Aktiv 114 / 114 40% 7 09.05.2027 -
Nicolò Zaniolo Udinese Aktiv 154 / 124 40% 3 08.05.2027 -
Sam Greenwood Bristol City Aktiv 129 / 130 40% 2 08.05.2027 -
Zakaria Aboukhlal Torino Aktiv 146 / 125 40% 1 08.05.2027 -
Efraín Álvarez Udinese Aktiv 141 / 147 40% 4 07.05.2027 -
Gonzalo Fulham Aktiv 145 / 143 40% 2 03.05.2027 -
Sergio Barlocco Trento Aktiv 101 / 94 40% 2 02.05.2027 -
Jovon Makama Norwich City Aktiv 134 / 112 40% 1 29.04.2027 -
Zian Flemming Ipswich Town Aktiv 125 / 142 40% 1 29.04.2027 -
Enzo Vázquez Central Norte Aktiv 112 / 120 40% 1 28.04.2027 -
Michael Cooper Sheffield United Aktiv 139 / 124 40% 4 27.04.2027 -
Murphy Cooper Plymouth Argyle Aktiv 114 / 97 40% 4 27.04.2027 -
Will Lankshear Middlesbrough Aktiv 120 / 137 40% 2 26.04.2027 -
Lautaro Maldonado Instituto Aktiv 112 / 124 40% 1 25.04.2027 -
Samuele Vitale Ascoli Aktiv 110 / 104 40% 2 22.04.2027 -
Iliman N'Diaye Derby County Aktiv 167 / 156 40% 2 21.04.2027 -
Hwang Hee-Chan Wolverhampton Aktiv 128 / 148 40% 1 17.04.2027 -
Josh Keeley Luton Town Aktiv 129 / 121 40% 2 11.04.2027 -
Nikita Kokarev Krylya Sovetov Aktiv 112 / 117 40% 1 07.04.2027 -
Giacomo Raspadori Atalanta Aktiv 142 / 128 40% 1 05.04.2027 -
Emmanuel Gómez Riga Alvarado Aktiv 119 / 116 40% 1 02.04.2027 -
George Wickens Lincoln City Aktiv 109 / 120 40% 4 31.03.2027 -
Arthur Beroe Aktiv 113 / 111 40% 2 31.03.2027 -
Anthony Patterson Wrexham Aktiv 134 / 119 40% 8 29.03.2027 -
James Trafford Leeds United Aktiv 148 / 145 40% 1 28.03.2027 -
Joseph Sulemana WAFA Aktiv 101 / 112 40% 1 27.03.2027 -
Patson Daka Leicester City Aktiv 132 / 113 40% 1 25.03.2027 -
Tom Cannon Sheffield United Aktiv 124 / 120 40% 1 23.03.2027 -
Zeki Amdouni Burnley Aktiv 123 / 123 40% 1 23.03.2027 -
Dominic Calvert-Lewin Leeds United Aktiv 144 / 147 40% 1 19.03.2027 -
Domagoj Drožđek Tractor Aktiv 131 / 112 40% 1 19.03.2027 -
Bilal Bayazıt Kayserispor Aktiv 119 / 122 40% 1 17.03.2027 -
Juan Manuel Boselli Krasnodar Aktiv 131 / 117 40% 1 16.03.2027 -
Bertrand Traoré Sunderland Aktiv 130 / 147 40% 1 16.03.2027 -
Franco Israel Torino Aktiv 128 / 119 40% 1 13.03.2027 -
Samu Maccabi Netanya Aktiv 108 / 115 40% 1 08.03.2027 -
Majid Noorafkan Siah Jamegan Aktiv 107 / 114 40% 1 23.02.2027 -
Hlompho Manyama Sivasspor Aktiv 113 / 111 40% 1 19.02.2027 -
Jordan Amissah Burton Albion Aktiv 93 / 83 40% 1 04.02.2027 -
Nacho Vidal Lech Aktiv 123 / 140 40% 3 15.12.2026 -
Martín Ortega Newell's Old Boys Aktiv 126 / 110 40% 1 15.12.2026 -
Federico Navarro Rosario Central Aktiv 132 / 124 40% 1 15.12.2026 -
Lucas Souto Defensa y Justicia Aktiv 123 / 115 40% 2 27.11.2026 -
Ferland Mendy Basel Aktiv 135 / 154 40% 3 27.11.2026 -
Facundo Zabala Independiente Aktiv 125 / 122 40% 2 25.11.2026 -
Lucas Carrizo Newell's Old Boys Aktiv 119 / 129 40% 1 25.11.2026 -
Tomás Silva Platense Aktiv 121 / 115 40% 2 21.11.2026 -
Nicolás Sumavil Platense Aktiv 111 / 109 40% 1 21.11.2026 -
Tomás Durso Atlético Tucumán Aktiv 112 / 117 40% 1 21.11.2026 -
Wladimiro Falcone Lecce Aktiv 141 / 138 40% 1 21.11.2026 -
Egil Selvik Watford Aktiv 113 / 110 40% 1 20.11.2026 -
Gastón Benedetti Estudiantes Aktiv 129 / 112 40% 1 18.11.2026 -
Ulises Ortegoza Talleres Aktiv 128 / 132 40% 1 18.11.2026 -
Sasha Marcich Lanús Aktiv 125 / 135 40% 1 16.11.2026 -
Leonardo Godoy Independiente Aktiv 134 / 130 40% 2 15.11.2026 -
Juan Saborido Platense Aktiv 120 / 130 40% 1 15.11.2026 -
Ignacio Rodríguez Racing Club Aktiv 115 / 126 40% 1 15.11.2026 -
Alexis Maldonado Belgrano Aktiv 123 / 120 40% 1 11.11.2026 -
Facundo Cambeses Racing Club Aktiv 132 / 120 40% 1 09.11.2026 -
Emanuel Mammana Vélez Aktiv 124 / 128 40% 1 08.11.2026 -
Francisco Álvarez Argentinos Juniors Aktiv 123 / 111 40% 1 08.11.2026 -
Gastón Hernández San Lorenzo Aktiv 125 / 121 40% 1 07.11.2026 -
Iván Villalba Independiente Rivadavia Aktiv 123 / 115 40% 1 06.11.2026 -
Emanuel Coronel Rosario Central Aktiv 119 / 123 40% 1 06.11.2026 -
Gabriel Busanello Malmo FF Aktiv 136 / 106 40% 1 26.10.2026 -
Zack Steffen Colorado Rapids Aktiv 146 / 127 40% 2 22.10.2026 -
Balázs Tóth Blackburn Rovers Aktiv 124 / 126 40% 1 22.10.2026 -
Douglas Augusto Krasnodar Aktiv 122 / 143 40% 1 22.10.2026 -
Grégoire Coudert Burnley Aktiv 135 / 107 40% 2 18.10.2026 -
Victor Aznar Cádiz Aktiv 116 / 118 40% 1 17.10.2026 -
Marcelino Núñez Ipswich Town Aktiv 115 / 139 40% 1 17.10.2026 -
Juan Escobar Melgar Aktiv 118 / 123 40% 1 17.10.2026 -
Bruno Varela Al-Hazem Aktiv 112 / 116 40% 1 14.10.2026 -
Andrei Puscas Astra Aktiv 126 / 141 40% 1 14.10.2026 -
Andreas Hansen FC Nordsjaelland Aktiv 124 / 140 40% 1 12.10.2026 -
Tomoki Hayakawa Kashima Antlers Aktiv 122 / 143 40% 1 12.10.2026 -
Alexander Nübel Besiktas Aktiv 134 / 130 40% 2 10.10.2026 -
Renato Solís Sporting Cristal Aktiv 122 / 115 40% 1 09.10.2026 -
Keisuke Osako Sanfrecce Hiroshima Aktiv 126 / 137 40% 1 07.10.2026 -
Justin Hammel Grasshopper Aktiv 106 / 138 40% 1 05.10.2026 -
Kazuki Fujita Avispa Fukuoka Aktiv 120 / 133 40% 2 03.10.2026 -
Lawrence Ati-Zigi St. Gallen Aktiv 136 / 128 40% 1 01.10.2026 -
Jindřich Staněk Slavia Prague Aktiv 143 / 149 40% 1 01.10.2026 -
Roman Celentano FC Cincinnati Aktiv 123 / 131 40% 1 29.09.2026 -
Angus Gunn San Jose Earthquakes Aktiv 114 / 100 40% 1 13.09.2026 -
Dayne St. Clair Inter Miami CF Aktiv 137 / 142 40% 1 11.09.2026 -
Sergio Reguilón Inter Miami CF Aktiv 139 / 150 40% 1 08.09.2026 -
Anton Salétros Chicago Fire Aktiv 137 / 130 40% 1 08.09.2026 -
Miles Robinson FC Cincinnati Aktiv 148 / 148 40% 1 08.08.2026 -
Dániel Gazdag New England Revolution Aktiv 118 / 139 40% 1 04.08.2026 -
David Brekalo Orlando City Aktiv 136 / 114 40% 1 03.08.2026 -
Jean America de Cali Aktiv 119 / 124 40% 1 02.08.2026 -